Time;durP1;ratioP1;P1;durP2;ratioP2;P2;SDS_P1;SDS_P2;PMS_P1;PMS_P2;Temp;Humidity;BMP_temperature;BMP_pressure;BME280_temperature;BME280_humidity;BME280_pressure;Samples;Min_cycle;Max_cycle;Signal;HPM_P1;HPM_P2
2021/06/06 00:01:26;;;;;;;6.88;5.35;;;14.70;99.90;;;;;;4972909;28;20110;-92
2021/06/06 00:03:58;;;;;;;8.77;4.35;;;14.60;99.90;;;;;;4978838;28;20066;-92
2021/06/06 00:06:32;;;;;;;4.63;4.15;;;14.60;99.90;;;;;;4978901;28;20074;-91
2021/06/06 00:09:00;;;;;;;4.32;3.92;;;14.60;99.90;;;;;;4972553;28;20078;-90
2021/06/06 00:11:36;;;;;;;4.93;4.15;;;14.70;99.90;;;;;;4955806;28;20125;-92
2021/06/06 00:14:09;;;;;;;6.05;4.32;;;14.60;99.90;;;;;;4992042;28;20054;-90
2021/06/06 00:16:46;;;;;;;6.40;4.32;;;14.60;99.90;;;;;;4977360;28;20483;-92
2021/06/06 00:19:14;;;;;;;5.00;4.50;;;14.60;99.90;;;;;;4986330;28;20176;-92
2021/06/06 00:21:42;;;;;;;5.75;4.28;;;14.60;99.90;;;;;;4974256;28;20131;-91
2021/06/06 00:24:16;;;;;;;6.68;5.00;;;14.60;99.90;;;;;;4973953;28;20050;-93
2021/06/06 00:26:43;;;;;;;5.13;4.40;;;14.60;99.90;;;;;;4956556;28;20459;-91
2021/06/06 00:29:10;;;;;;;4.82;3.65;;;14.60;99.90;;;;;;4972602;28;20392;-90
2021/06/06 00:31:37;;;;;;;7.13;4.70;;;14.60;99.90;;;;;;4954120;28;20055;-91
2021/06/06 00:34:05;;;;;;;6.25;4.47;;;14.60;99.90;;;;;;4971845;28;20134;-92
2021/06/06 00:36:33;;;;;;;6.07;4.38;;;14.60;99.90;;;;;;4991043;28;20054;-90
2021/06/06 00:39:00;;;;;;;5.18;3.88;;;14.60;99.90;;;;;;4957094;28;20130;-90
2021/06/06 00:41:28;;;;;;;5.18;4.22;;;14.60;99.90;;;;;;4966517;28;20058;-92
2021/06/06 00:43:56;;;;;;;5.95;4.40;;;14.60;99.90;;;;;;4964823;28;20061;-92
2021/06/06 00:46:26;;;;;;;5.05;4.03;;;14.60;99.90;;;;;;4961194;28;20050;-90
2021/06/06 00:48:54;;;;;;;5.40;3.60;;;14.60;99.90;;;;;;4959913;28;20058;-89
2021/06/06 00:51:27;;;;;;;4.13;3.72;;;14.60;99.90;;;;;;4975017;28;20042;-92
2021/06/06 00:54:05;;;;;;;4.90;3.75;;;14.60;99.90;;;;;;4966381;28;20039;-93
2021/06/06 00:56:32;;;;;;;3.80;3.40;;;14.50;99.90;;;;;;4941226;28;20409;-90
2021/06/06 00:59:00;;;;;;;5.55;3.85;;;14.50;99.90;;;;;;4929082;28;20051;-91
2021/06/06 01:01:27;;;;;;;5.70;4.60;;;14.50;99.90;;;;;;4958912;28;20046;-92
2021/06/06 01:03:56;;;;;;;7.43;4.35;;;14.50;99.90;;;;;;4963452;28;20057;-92
2021/06/06 01:06:33;;;;;;;5.53;4.65;;;14.50;99.90;;;;;;4983216;28;20042;-94
2021/06/06 01:09:03;;;;;;;6.82;4.55;;;14.50;99.90;;;;;;4982956;28;20049;-92
2021/06/06 01:11:36;;;;;;;7.30;4.78;;;14.50;99.90;;;;;;4978377;28;20056;-92
2021/06/06 01:14:14;;;;;;;6.82;4.82;;;14.50;99.90;;;;;;4992039;28;20103;-91
2021/06/06 01:16:51;;;;;;;8.60;6.00;;;14.50;99.90;;;;;;4986016;28;20341;-90
2021/06/06 01:19:33;;;;;;;10.35;5.63;;;14.50;99.90;;;;;;4972223;28;20051;-91
2021/06/06 01:22:31;;;;;;;7.85;5.50;;;14.50;99.90;;;;;;4976796;28;20055;-92
2021/06/06 01:25:23;;;;;;;7.68;5.00;;;14.50;99.90;;;;;;4970482;28;20051;-91
2021/06/06 01:28:02;;;;;;;6.88;5.63;;;14.50;99.90;;;;;;4986146;28;20197;-92
2021/06/06 01:30:33;;;;;;;9.45;5.47;;;14.50;99.90;;;;;;4976399;28;20047;-90
2021/06/06 01:33:13;;;;;;;6.05;5.20;;;14.50;99.90;;;;;;4987335;28;22113;-91
2021/06/06 01:35:48;;;;;;;6.22;4.70;;;14.50;99.90;;;;;;4973659;28;20117;-90
2021/06/06 01:38:21;;;;;;;5.45;4.50;;;14.40;99.90;;;;;;4981255;28;20057;-92
2021/06/06 01:40:52;;;;;;;7.00;4.43;;;14.40;99.90;;;;;;4995566;28;20051;-90
2021/06/06 01:43:28;;;;;;;7.60;5.37;;;14.50;99.90;;;;;;4977152;28;20125;-92
2021/06/06 01:46:03;;;;;;;6.32;4.60;;;14.40;99.90;;;;;;4985594;28;20781;-91
2021/06/06 01:48:32;;;;;;;3.65;3.20;;;14.40;99.90;;;;;;4980389;28;20077;-90
2021/06/06 01:51:16;;;;;;;3.60;3.17;;;14.40;99.90;;;;;;4987597;28;20053;-89
2021/06/06 01:53:46;;;;;;;5.32;2.85;;;14.50;99.90;;;;;;4988749;28;20057;-92
2021/06/06 01:56:28;;;;;;;2.25;2.00;;;14.50;99.90;;;;;;4975275;28;20050;-89
2021/06/06 01:58:58;;;;;;;5.10;2.05;;;14.40;99.90;;;;;;4975223;28;20149;-93
2021/06/06 02:01:26;;;;;;;4.63;2.40;;;14.40;99.90;;;;;;4994096;28;20062;-88
2021/06/06 02:03:57;;;;;;;2.53;1.70;;;14.50;99.90;;;;;;4996320;28;20045;-91
2021/06/06 02:06:35;;;;;;;5.05;1.60;;;14.40;99.90;;;;;;4979747;28;20048;-91
2021/06/06 02:09:06;;;;;;;1.73;1.52;;;14.40;99.90;;;;;;4974378;28;20085;-89
2021/06/06 02:11:42;;;;;;;2.60;2.05;;;14.40;99.90;;;;;;4989555;28;20146;-91
2021/06/06 02:14:15;;;;;;;5.15;3.35;;;14.40;99.90;;;;;;4987410;28;20046;-90
2021/06/06 02:16:46;;;;;;;2.78;2.47;;;14.20;99.90;;;;;;4989046;28;20054;-91
2021/06/06 02:19:13;;;;;;;5.15;2.75;;;14.20;99.90;;;;;;4989486;28;20089;-89
2021/06/06 02:21:42;;;;;;;7.50;2.30;;;14.10;99.90;;;;;;4993223;28;20050;-90
2021/06/06 02:24:10;;;;;;;3.85;3.28;;;14.10;99.90;;;;;;4988676;28;20046;-88
2021/06/06 02:26:48;;;;;;;4.45;3.63;;;14.10;99.90;;;;;;4974183;28;20053;-92
2021/06/06 02:29:31;;;;;;;5.03;3.88;;;14.10;99.90;;;;;;4992501;28;20129;-89
2021/06/06 02:32:33;;;;;;;6.38;4.45;;;14.00;99.90;;;;;;4993161;28;20057;-90
2021/06/06 02:35:40;;;;;;;5.82;4.43;;;14.00;99.90;;;;;;4979894;28;20053;-90
2021/06/06 02:38:38;;;;;;;8.07;5.43;;;14.00;99.90;;;;;;4960880;28;20159;-91
2021/06/06 02:41:15;;;;;;;8.15;5.88;;;14.00;99.90;;;;;;4990088;28;20069;-89
2021/06/06 02:43:44;;;;;;;7.78;5.90;;;14.00;99.90;;;;;;4968639;28;20051;-89
2021/06/06 02:46:13;;;;;;;8.45;5.90;;;13.90;99.90;;;;;;4984599;28;20057;-89
2021/06/06 02:48:51;;;;;;;10.18;6.43;;;14.00;99.90;;;;;;4973926;28;20432;-90
2021/06/06 02:51:23;;;;;;;9.63;5.82;;;14.00;99.90;;;;;;4987190;28;20057;-88
2021/06/06 02:54:00;;;;;;;9.27;5.95;;;13.90;99.90;;;;;;4988124;28;20387;-90
2021/06/06 02:56:35;;;;;;;10.05;6.07;;;13.90;99.90;;;;;;4988832;28;20140;-88
2021/06/06 02:59:17;;;;;;;9.40;6.93;;;14.00;99.90;;;;;;4992504;28;20420;-91
2021/06/06 03:01:52;;;;;;;11.52;6.00;;;13.90;99.90;;;;;;4991548;28;20091;-88
2021/06/06 03:04:24;;;;;;;9.02;6.47;;;14.00;99.90;;;;;;4991690;28;20050;-89
2021/06/06 03:07:07;;;;;;;12.43;6.45;;;13.90;99.90;;;;;;4987856;28;20536;-88
2021/06/06 03:09:34;;;;;;;12.77;7.65;;;13.90;99.90;;;;;;4992173;28;20046;-89
2021/06/06 03:12:08;;;;;;;9.93;7.22;;;13.90;99.90;;;;;;4992107;28;20050;-88
2021/06/06 03:14:39;;;;;;;12.75;8.38;;;13.90;99.90;;;;;;4975815;28;20049;-89
2021/06/06 03:17:14;;;;;;;11.73;8.02;;;13.90;99.90;;;;;;4974434;28;20058;-89
2021/06/06 03:19:47;;;;;;;13.23;9.13;;;13.90;99.90;;;;;;4985064;28;20055;-90
2021/06/06 03:22:20;;;;;;;12.32;8.07;;;13.90;99.90;;;;;;4982626;28;20042;-89
2021/06/06 03:24:50;;;;;;;13.73;8.35;;;13.90;99.90;;;;;;4974518;28;20072;-89
2021/06/06 03:27:20;;;;;;;11.75;7.78;;;13.90;99.90;;;;;;4985129;28;20046;-89
2021/06/06 03:29:58;;;;;;;11.07;8.30;;;13.90;99.90;;;;;;4985364;28;20118;-89
2021/06/06 03:32:31;;;;;;;12.35;8.15;;;13.90;99.90;;;;;;4989413;28;20081;-90
2021/06/06 03:34:58;;;;;;;13.25;8.20;;;14.00;99.90;;;;;;4986926;28;20046;-90
2021/06/06 03:37:28;;;;;;;12.13;7.93;;;13.90;99.90;;;;;;4975738;28;20085;-89
2021/06/06 03:39:57;;;;;;;13.48;8.23;;;14.00;99.90;;;;;;4989792;28;20073;-90
2021/06/06 03:42:24;;;;;;;11.15;7.60;;;13.90;99.90;;;;;;4991004;28;20053;-90
2021/06/06 03:44:53;;;;;;;15.45;10.30;;;13.90;99.90;;;;;;4974312;28;20050;-90
2021/06/06 03:47:20;;;;;;;13.95;8.93;;;13.90;99.90;;;;;;4990719;28;20104;-91
2021/06/06 03:49:48;;;;;;;14.07;8.27;;;13.90;99.90;;;;;;4973965;28;20129;-91
2021/06/06 03:52:15;;;;;;;11.27;7.65;;;13.90;99.90;;;;;;4990809;28;20219;-91
2021/06/06 03:54:42;;;;;;;12.15;7.63;;;13.90;99.90;;;;;;4996744;28;20117;-90
2021/06/06 03:57:08;;;;;;;10.30;7.38;;;13.90;99.90;;;;;;4973918;28;20054;-90
2021/06/06 03:59:38;;;;;;;10.15;6.43;;;13.90;99.90;;;;;;4955766;28;20121;-89
2021/06/06 04:02:05;;;;;;;11.57;6.32;;;13.90;99.90;;;;;;4998895;28;20053;-89
2021/06/06 04:04:34;;;;;;;11.98;7.07;;;13.90;99.90;;;;;;4984452;28;20730;-90
2021/06/06 04:07:00;;;;;;;9.82;6.50;;;13.90;99.90;;;;;;4974535;28;20121;-89
2021/06/06 04:09:30;;;;;;;10.07;6.53;;;13.90;99.90;;;;;;4993986;28;20149;-90
2021/06/06 04:11:57;;;;;;;9.50;6.65;;;13.90;99.90;;;;;;4960980;28;20070;-90
2021/06/06 04:14:24;;;;;;;11.32;6.40;;;13.90;99.90;;;;;;4990331;28;20080;-89
2021/06/06 04:16:51;;;;;;;7.95;5.95;;;13.90;99.90;;;;;;4975047;28;20050;-90
2021/06/06 04:19:19;;;;;;;9.43;6.40;;;14.00;99.90;;;;;;4991520;28;20054;-91
2021/06/06 04:21:46;;;;;;;7.55;5.97;;;14.00;99.90;;;;;;4974231;28;20098;-91
2021/06/06 04:24:19;;;;;;;10.30;6.50;;;14.00;99.90;;;;;;4975100;28;20042;-90
2021/06/06 04:26:48;;;;;;;10.32;6.88;;;13.90;99.90;;;;;;4991489;28;20417;-90
2021/06/06 04:29:15;;;;;;;9.90;6.05;;;14.00;99.90;;;;;;4974249;28;20078;-89
2021/06/06 04:31:43;;;;;;;10.30;7.60;;;14.00;99.90;;;;;;4977319;28;20046;-89
2021/06/06 04:34:10;;;;;;;12.95;8.80;;;14.00;99.90;;;;;;4998089;28;20097;-91
2021/06/06 04:37:00;;;;;;;9.85;7.00;;;14.00;99.90;;;;;;4981433;28;20059;-92
2021/06/06 04:39:28;;;;;;;10.43;6.85;;;14.00;99.90;;;;;;4972411;28;20466;-89
2021/06/06 04:41:58;;;;;;;9.70;7.45;;;14.00;99.90;;;;;;4941220;28;20063;-91
2021/06/06 04:44:26;;;;;;;12.48;7.15;;;14.10;99.90;;;;;;4947878;28;20081;-90
2021/06/06 04:46:55;;;;;;;9.88;6.32;;;14.10;99.90;;;;;;4958892;28;20070;-91
2021/06/06 04:49:38;;;;;;;7.97;5.82;;;14.10;99.90;;;;;;4977386;28;20110;-90
2021/06/06 04:52:09;;;;;;;8.40;6.10;;;14.10;99.90;;;;;;4986024;28;20382;-91
2021/06/06 04:54:39;;;;;;;8.13;6.22;;;14.10;99.90;;;;;;4959900;28;20055;-92
2021/06/06 04:57:14;;;;;;;8.18;6.10;;;14.10;99.90;;;;;;4960370;28;20495;-90
2021/06/06 05:00:13;;;;;;;6.32;5.25;;;14.20;99.90;;;;;;4960822;28;20114;-91
2021/06/06 05:02:40;;;;;;;11.20;5.97;;;14.10;99.90;;;;;;4963512;28;20051;-90
2021/06/06 05:05:08;;;;;;;9.82;6.20;;;14.20;99.90;;;;;;4977876;28;20062;-89
2021/06/06 05:07:35;;;;;;;9.60;5.30;;;14.10;99.90;;;;;;4975418;28;20612;-90
2021/06/06 05:10:07;;;;;;;6.25;4.32;;;14.10;99.90;;;;;;4976488;28;20065;-90
2021/06/06 05:12:39;;;;;;;4.90;4.22;;;14.10;99.90;;;;;;4987508;28;20046;-91
2021/06/06 05:15:06;;;;;;;7.68;5.38;;;14.10;99.90;;;;;;4986069;28;20055;-91
2021/06/06 05:17:40;;;;;;;6.03;4.53;;;14.10;99.90;;;;;;4959667;28;20043;-89
2021/06/06 05:20:10;;;;;;;8.80;4.25;;;14.20;99.90;;;;;;4942980;29;20482;-92
2021/06/06 05:22:37;;;;;;;9.85;4.80;;;14.20;99.90;;;;;;4959850;28;20460;-90
2021/06/06 05:25:09;;;;;;;7.13;4.18;;;14.20;99.90;;;;;;4977127;28;20522;-90
2021/06/06 05:27:50;;;;;;;6.97;3.90;;;14.20;99.90;;;;;;4958819;28;20105;-90
2021/06/06 05:30:24;;;;;;;4.03;2.90;;;14.20;99.90;;;;;;4976581;28;20075;-91
2021/06/06 05:32:57;;;;;;;6.60;3.58;;;14.30;99.90;;;;;;4946117;28;20055;-92
2021/06/06 05:35:34;;;;;;;7.18;3.40;;;14.30;99.90;;;;;;4980644;28;20471;-92
2021/06/06 05:38:06;;;;;;;6.10;3.65;;;14.30;99.90;;;;;;4983513;28;20490;-89
2021/06/06 05:44:01;;;;;;;7.93;3.60;;;14.30;99.90;;;;;;4932596;29;20441;-91
2021/06/06 05:46:42;;;;;;;11.80;4.18;;;14.30;99.90;;;;;;4901887;29;20110;-91
2021/06/06 05:49:11;;;;;;;9.48;3.67;;;14.30;99.90;;;;;;4920945;29;20353;-90
2021/06/06 05:51:42;;;;;;;8.13;3.75;;;14.30;99.90;;;;;;4939768;28;20054;-92
2021/06/06 05:54:15;;;;;;;11.02;3.80;;;14.20;99.90;;;;;;4978446;28;20313;-89
2021/06/06 05:57:13;;;;;;;10.32;5.00;;;14.30;99.90;;;;;;4954751;29;20126;-91
2021/06/06 05:59:43;;;;;;;14.70;5.95;;;14.20;99.90;;;;;;4954118;29;20467;-90
2021/06/06 06:02:15;;;;;;;20.35;6.53;;;14.20;99.90;;;;;;4954883;29;20074;-91
2021/06/06 06:04:42;;;;;;;14.80;6.85;;;14.20;99.90;;;;;;4954461;29;20051;-91
2021/06/06 06:07:27;;;;;;;19.20;8.32;;;14.10;99.90;;;;;;4950059;29;20441;-91
2021/06/06 06:10:05;;;;;;;20.17;8.70;;;14.20;99.90;;;;;;4954933;29;20055;-91
2021/06/06 06:12:36;;;;;;;20.23;8.40;;;14.20;99.90;;;;;;4955077;29;20103;-91
2021/06/06 06:15:07;;;;;;;18.45;8.23;;;14.30;99.90;;;;;;4939166;29;20460;-90
2021/06/06 06:17:48;;;;;;;27.48;8.95;;;14.30;99.90;;;;;;4940086;28;20146;-90
2021/06/06 06:20:19;;;;;;;26.73;9.55;;;14.30;99.90;;;;;;4921193;29;20071;-90
2021/06/06 06:22:46;;;;;;;23.23;10.38;;;14.30;99.90;;;;;;4943384;29;20087;-90
2021/06/06 06:25:19;;;;;;;26.80;10.63;;;14.30;99.90;;;;;;4953639;29;20053;-92
2021/06/06 06:27:47;;;;;;;19.80;9.95;;;14.40;99.90;;;;;;4970563;28;20072;-92
2021/06/06 06:30:20;;;;;;;22.35;10.60;;;14.40;99.90;;;;;;4995027;28;20089;-91
2021/06/06 06:32:50;;;;;;;22.88;11.13;;;14.40;99.90;;;;;;4980065;28;20043;-90
2021/06/06 06:35:20;;;;;;;20.92;10.15;;;14.40;99.90;;;;;;4979454;28;20464;-91
2021/06/06 06:37:55;;;;;;;23.85;11.68;;;14.50;99.90;;;;;;4979695;28;20053;-88
2021/06/06 06:40:24;;;;;;;27.35;13.65;;;14.50;99.90;;;;;;4996652;28;20054;-90
2021/06/06 06:43:01;;;;;;;26.35;14.05;;;14.50;99.90;;;;;;5010902;28;20061;-89
2021/06/06 06:45:36;;;;;;;28.58;13.98;;;14.50;99.90;;;;;;4985997;28;20082;-90
2021/06/06 06:48:07;;;;;;;34.47;15.38;;;14.60;99.90;;;;;;4994927;28;20042;-91
2021/06/06 06:50:35;;;;;;;29.55;15.02;;;14.60;99.90;;;;;;4991425;28;20070;-91
2021/06/06 06:53:03;;;;;;;34.60;16.88;;;14.60;99.90;;;;;;4993252;28;20062;-91
2021/06/06 06:55:32;;;;;;;35.88;17.38;;;14.70;99.90;;;;;;4975962;28;20054;-91
2021/06/06 06:58:16;;;;;;;32.28;17.10;;;14.70;99.90;;;;;;4995339;28;20078;-90
2021/06/06 07:00:46;;;;;;;29.08;16.50;;;14.70;99.90;;;;;;4961180;28;20077;-90
2021/06/06 07:03:19;;;;;;;30.85;16.35;;;14.80;99.90;;;;;;4967474;28;20041;-90
2021/06/06 07:06:09;;;;;;;;;;;;;;;;;;;;;
2021/06/06 07:08:45;;;;;;;26.50;15.35;;;15.00;99.90;;;;;;4990666;28;20074;-92
2021/06/06 07:11:16;;;;;;;23.30;14.50;;;15.00;99.90;;;;;;4995363;28;20058;-90
2021/06/06 07:13:48;;;;;;;19.88;13.57;;;15.10;99.90;;;;;;4980878;28;20078;-93
2021/06/06 07:16:17;;;;;;;18.50;12.93;;;15.10;99.90;;;;;;4978147;28;20042;-91
2021/06/06 07:18:45;;;;;;;17.90;12.23;;;15.10;99.90;;;;;;4978266;28;20062;-92
2021/06/06 07:21:15;;;;;;;17.98;11.95;;;15.20;99.90;;;;;;5001967;28;20121;-88
2021/06/06 07:23:44;;;;;;;19.10;12.88;;;15.20;99.90;;;;;;4990427;28;20054;-93
2021/06/06 07:26:37;;;;;;;20.25;13.90;;;15.30;99.90;;;;;;4972298;28;20094;-92
2021/06/06 07:29:09;;;;;;;18.60;13.60;;;15.30;99.90;;;;;;4991338;28;20051;-92
2021/06/06 07:31:58;;;;;;;22.08;14.98;;;15.30;99.90;;;;;;4981455;28;20058;-95
2021/06/06 07:34:29;;;;;;;25.25;14.82;;;15.30;99.90;;;;;;5002402;28;20046;-92
2021/06/06 07:37:03;;;;;;;24.08;13.60;;;15.30;99.90;;;;;;4995391;28;20519;-92
2021/06/06 07:39:32;;;;;;;22.30;14.95;;;15.20;99.90;;;;;;4992757;28;20047;-93
2021/06/06 07:42:03;;;;;;;22.13;14.95;;;15.10;99.90;;;;;;4973968;28;20061;-90
2021/06/06 07:44:30;;;;;;;23.05;15.77;;;15.10;99.90;;;;;;4993102;28;20051;-91
2021/06/06 07:47:07;;;;;;;29.52;16.05;;;15.20;99.90;;;;;;4995471;28;20057;-90
2021/06/06 07:49:36;;;;;;;25.60;15.52;;;15.10;99.90;;;;;;4982809;28;20038;-91
2021/06/06 07:52:07;;;;;;;24.92;14.75;;;15.10;99.90;;;;;;5005770;28;20051;-90
2021/06/06 07:54:51;;;;;;;23.77;14.45;;;15.10;99.90;;;;;;4975828;28;20058;-92
2021/06/06 07:57:29;;;;;;;22.40;14.43;;;15.10;99.90;;;;;;4982910;28;20058;-92
2021/06/06 07:59:58;;;;;;;24.30;14.07;;;15.10;99.90;;;;;;4981249;28;20507;-91
2021/06/06 08:02:25;;;;;;;24.40;14.57;;;15.20;99.90;;;;;;5007281;28;20463;-92
2021/06/06 08:04:52;;;;;;;24.95;14.43;;;15.20;99.90;;;;;;4985146;28;20126;-92
2021/06/06 08:07:19;;;;;;;20.38;13.82;;;15.30;99.90;;;;;;4978190;28;20105;-92
2021/06/06 08:09:46;;;;;;;21.73;13.43;;;15.30;99.90;;;;;;5012550;28;20140;-91
2021/06/06 08:12:13;;;;;;;23.27;12.98;;;15.40;99.90;;;;;;4960483;28;20129;-93
2021/06/06 08:14:47;;;;;;;20.80;13.23;;;15.40;99.90;;;;;;4992195;28;20054;-91
2021/06/06 08:17:28;;;;;;;26.92;13.75;;;15.40;99.90;;;;;;4990288;28;20165;-91
2021/06/06 08:20:01;;;;;;;21.20;13.10;;;15.30;99.90;;;;;;5010758;28;20081;-93
2021/06/06 08:22:39;;;;;;;22.88;12.98;;;15.30;99.90;;;;;;5003446;28;20046;-88
2021/06/06 08:25:11;;;;;;;26.77;13.95;;;15.30;99.90;;;;;;5002471;28;20042;-94
2021/06/06 08:27:42;;;;;;;24.23;14.02;;;15.30;99.90;;;;;;4996098;28;20045;-88
2021/06/06 08:30:13;;;;;;;26.35;12.15;;;15.40;99.90;;;;;;4999184;28;20092;-89
2021/06/06 08:32:41;;;;;;;21.48;12.23;;;15.50;99.90;;;;;;4993415;28;20049;-92
2021/06/06 08:35:11;;;;;;;19.05;11.40;;;15.60;99.90;;;;;;4988883;28;20158;-91
2021/06/06 08:37:41;;;;;;;24.83;12.68;;;15.60;99.90;;;;;;4975970;28;20099;-92
2021/06/06 08:40:18;;;;;;;20.40;11.57;;;15.70;99.90;;;;;;4989478;28;20363;-91
2021/06/06 08:42:46;;;;;;;21.58;11.60;;;15.70;99.90;;;;;;4999369;28;20081;-92
2021/06/06 08:45:40;;;;;;;20.88;11.40;;;15.80;99.90;;;;;;4997257;28;20661;-92
2021/06/06 08:48:09;;;;;;;20.90;11.13;;;15.80;99.90;;;;;;4997929;28;20051;-90
2021/06/06 08:50:55;;;;;;;19.73;10.88;;;15.80;99.90;;;;;;4980664;28;20050;-93
2021/06/06 08:53:32;;;;;;;18.25;10.40;;;15.90;99.90;;;;;;4984558;28;20486;-90
2021/06/06 08:56:20;;;;;;;23.95;12.60;;;16.00;99.90;;;;;;4997741;28;20078;-91
2021/06/06 08:58:58;;;;;;;22.38;12.48;;;16.00;99.90;;;;;;4961139;28;20137;-91
2021/06/06 09:01:46;;;;;;;28.02;13.80;;;16.10;99.90;;;;;;4992432;28;20447;-91
2021/06/06 09:04:21;;;;;;;28.63;13.75;;;16.00;99.90;;;;;;4989859;28;20038;-92
2021/06/06 09:07:02;;;;;;;24.65;13.00;;;15.90;99.90;;;;;;5001000;28;20059;-94
2021/06/06 09:09:44;;;;;;;28.75;13.80;;;15.80;99.90;;;;;;4970162;28;20065;-92
2021/06/06 09:12:18;;;;;;;29.45;13.80;;;15.80;99.90;;;;;;4983611;28;20050;-91
2021/06/06 09:14:50;;;;;;;23.25;12.25;;;15.80;99.90;;;;;;4974326;28;20047;-90
2021/06/06 09:17:45;;;;;;;22.08;12.15;;;15.90;99.90;;;;;;4993845;28;20050;-93
2021/06/06 09:20:32;;;;;;;26.02;13.20;;;15.90;99.90;;;;;;4995740;28;20538;-89
2021/06/06 09:23:28;;;;;;;22.98;12.45;;;15.90;99.90;;;;;;4977274;28;20066;-93
2021/06/06 09:26:30;;;;;;;22.65;13.02;;;15.90;99.90;;;;;;4995547;28;20050;-92
2021/06/06 09:29:18;;;;;;;22.27;13.30;;;15.90;99.90;;;;;;4981120;28;20043;-92
2021/06/06 09:31:58;;;;;;;22.40;13.38;;;15.90;99.90;;;;;;4983042;28;20127;-90
2021/06/06 09:34:28;;;;;;;26.90;15.57;;;16.00;99.90;;;;;;4994230;28;20050;-91
2021/06/06 09:37:16;;;;;;;33.53;18.65;;;15.90;99.90;;;;;;4999937;28;20137;-91
2021/06/06 09:39:46;;;;;;;26.27;15.43;;;15.90;99.90;;;;;;5005463;28;20061;-90
2021/06/06 09:42:47;;;;;;;27.17;16.15;;;15.90;99.90;;;;;;5004198;28;20435;-92
2021/06/06 09:45:30;;;;;;;32.03;17.92;;;16.00;99.90;;;;;;4996230;28;20061;-90
2021/06/06 09:48:16;;;;;;;27.58;15.77;;;15.90;99.90;;;;;;4994294;28;20054;-92
2021/06/06 09:51:11;;;;;;;26.48;15.50;;;16.00;99.90;;;;;;4995149;28;20050;-90
2021/06/06 09:53:42;;;;;;;26.92;16.25;;;16.00;99.90;;;;;;4994054;28;20130;-89
2021/06/06 09:56:26;;;;;;;28.40;16.15;;;16.20;99.90;;;;;;4977595;28;20396;-92
2021/06/06 09:59:12;;;;;;;25.70;15.27;;;16.30;99.90;;;;;;4994644;28;20050;-91
2021/06/06 10:02:00;;;;;;;23.85;15.52;;;16.40;99.90;;;;;;4975699;28;20085;-93
2021/06/06 10:04:33;;;;;;;22.08;12.90;;;16.50;99.90;;;;;;4996559;28;20051;-93
2021/06/06 10:07:18;;;;;;;17.48;12.48;;;16.50;99.90;;;;;;4996498;28;20050;-89
2021/06/06 10:09:52;;;;;;;18.02;11.65;;;16.50;99.90;;;;;;4999215;28;20081;-90
2021/06/06 10:12:40;;;;;;;18.83;12.05;;;16.50;99.90;;;;;;4985898;28;20073;-91
2021/06/06 10:15:19;;;;;;;13.70;9.60;;;16.50;99.90;;;;;;4987039;28;20159;-92
2021/06/06 10:17:56;;;;;;;13.27;9.20;;;16.60;99.90;;;;;;4984568;28;20046;-92
2021/06/06 10:20:39;;;;;;;13.27;9.13;;;16.80;99.90;;;;;;5003713;28;20062;-90
2021/06/06 10:23:38;;;;;;;12.63;10.32;;;16.80;99.90;;;;;;4996829;28;20448;-94
2021/06/06 10:26:30;;;;;;;14.10;10.20;;;16.70;99.90;;;;;;4982368;28;20042;-92
2021/06/06 10:29:27;;;;;;;14.20;10.43;;;16.70;99.90;;;;;;4994912;28;20108;-91
2021/06/06 10:32:03;;;;;;;17.95;12.32;;;16.60;99.90;;;;;;4995510;28;20050;-91
2021/06/06 10:35:00;;;;;;;17.38;12.65;;;16.60;99.90;;;;;;4983918;28;20105;-93
2021/06/06 10:37:30;;;;;;;17.77;13.35;;;16.50;99.90;;;;;;4967189;28;20058;-92
2021/06/06 10:40:39;;;;;;;21.67;14.75;;;16.60;99.90;;;;;;4967244;28;20068;-95
2021/06/06 10:43:37;;;;;;;19.60;13.05;;;16.60;99.90;;;;;;4981994;28;20550;-92
2021/06/06 10:46:23;;;;;;;15.98;12.10;;;16.70;99.90;;;;;;4979042;28;20047;-91
2021/06/06 10:49:18;;;;;;;16.05;13.70;;;16.90;99.90;;;;;;4976180;28;20057;-93
2021/06/06 10:51:52;;;;;;;17.98;13.48;;;17.30;99.90;;;;;;4969567;28;20043;-90
2021/06/06 10:54:37;;;;;;;18.10;14.23;;;17.60;99.90;;;;;;4952381;28;20050;-90
2021/06/06 10:57:29;;;;;;;19.67;14.77;;;17.70;99.90;;;;;;4958265;28;20101;-91
2021/06/06 11:00:05;;;;;;;20.65;15.05;;;17.70;99.90;;;;;;4957078;28;20070;-93
2021/06/06 11:02:39;;;;;;;19.17;15.02;;;17.60;99.90;;;;;;4960537;28;20114;-93
2021/06/06 11:05:39;;;;;;;28.77;18.98;;;17.50;99.90;;;;;;4966569;28;20448;-93
2021/06/06 11:08:36;;;;;;;24.10;18.05;;;17.30;99.90;;;;;;4959865;28;20389;-94
2021/06/06 11:11:10;;;;;;;25.05;16.88;;;17.20;99.90;;;;;;4975375;28;20480;-94
2021/06/06 11:13:40;;;;;;;25.40;18.65;;;17.00;99.90;;;;;;4976708;28;20050;-92
2021/06/06 11:16:18;;;;;;;23.90;18.10;;;16.90;99.90;;;;;;4948350;28;20039;-96
2021/06/06 11:18:57;;;;;;;31.50;19.55;;;16.70;99.90;;;;;;4974716;28;20130;-92
2021/06/06 11:21:41;;;;;;;26.95;19.25;;;16.70;99.90;;;;;;4975478;28;20121;-93
2021/06/06 11:24:31;;;;;;;26.05;18.65;;;16.60;99.90;;;;;;4960128;28;20055;-92
2021/06/06 11:27:09;;;;;;;27.08;19.23;;;16.60;99.90;;;;;;4949628;29;20075;-93
2021/06/06 11:29:56;;;;;;;27.02;18.90;;;16.50;99.90;;;;;;4978876;28;20464;-91
2021/06/06 11:32:40;;;;;;;29.23;20.40;;;16.50;99.90;;;;;;4979646;28;20058;-94
2021/06/06 11:35:24;;;;;;;31.67;21.77;;;16.60;99.90;;;;;;4978184;28;20114;-93
2021/06/06 11:38:13;;;;;;;31.20;20.58;;;16.80;99.90;;;;;;5016380;28;20133;-94
2021/06/06 11:40:47;;;;;;;30.00;20.63;;;17.00;99.90;;;;;;5001347;28;20090;-93
2021/06/06 11:43:32;;;;;;;30.73;20.73;;;17.30;99.90;;;;;;4960826;28;20507;-94
2021/06/06 11:46:11;;;;;;;31.70;20.95;;;17.50;99.90;;;;;;4994662;28;20070;-93
2021/06/06 11:48:56;;;;;;;29.45;20.38;;;17.70;99.90;;;;;;5007974;28;20041;-93
2021/06/06 11:51:57;;;;;;;27.92;19.73;;;17.90;99.90;;;;;;4988060;28;20102;-93
2021/06/06 11:54:42;;;;;;;29.58;19.83;;;18.20;99.90;;;;;;4997042;28;20050;-91
2021/06/06 11:57:20;;;;;;;33.60;22.00;;;18.40;99.90;;;;;;4996248;28;20057;-91
2021/06/06 12:00:20;;;;;;;35.92;22.65;;;18.50;99.90;;;;;;4979440;28;20062;-93
2021/06/06 12:02:50;;;;;;;36.40;24.25;;;18.50;99.90;;;;;;4977786;28;20393;-93
2021/06/06 12:05:29;;;;;;;41.45;26.20;;;18.40;99.90;;;;;;4983518;28;20054;-92
2021/06/06 12:08:16;;;;;;;42.95;28.05;;;18.40;99.90;;;;;;4983300;28;20389;-92
2021/06/06 12:10:55;;;;;;;44.50;27.33;;;18.40;99.90;;;;;;5007371;28;20050;-94
2021/06/06 12:13:38;;;;;;;42.78;27.67;;;18.30;99.90;;;;;;4986047;28;20051;-92
2021/06/06 12:16:15;;;;;;;47.40;29.65;;;18.10;99.90;;;;;;4997092;28;20046;-92
2021/06/06 12:18:45;;;;;;;42.53;27.52;;;17.70;99.90;;;;;;4996649;28;20066;-91
2021/06/06 12:21:24;;;;;;;44.85;28.02;;;17.30;99.90;;;;;;5000549;28;20050;-93
2021/06/06 12:24:17;;;;;;;46.92;29.45;;;17.00;99.90;;;;;;4979246;28;20104;-91
2021/06/06 12:27:07;;;;;;;45.90;28.77;;;17.00;99.90;;;;;;4985151;28;20055;-91
2021/06/06 12:29:48;;;;;;;47.58;29.65;;;16.80;99.90;;;;;;4969505;28;20072;-93
2021/06/06 12:32:23;;;;;;;51.55;32.33;;;16.70;99.90;;;;;;4983546;28;20059;-92
2021/06/06 12:34:51;;;;;;;52.65;32.65;;;16.60;99.90;;;;;;4981867;28;20097;-92
2021/06/06 12:37:27;;;;;;;59.88;35.63;;;16.60;99.90;;;;;;4960415;28;20062;-91
2021/06/06 12:40:00;;;;;;;57.22;35.28;;;16.70;99.90;;;;;;4994698;28;20047;-94
2021/06/06 12:42:28;;;;;;;56.58;34.13;;;16.80;99.90;;;;;;5007475;28;20064;-94
2021/06/06 12:45:05;;;;;;;59.30;35.88;;;16.80;99.90;;;;;;4998320;28;20061;-91
2021/06/06 12:47:40;;;;;;;60.42;36.35;;;16.80;99.90;;;;;;4999649;28;20085;-92
2021/06/06 12:50:28;;;;;;;57.13;36.33;;;16.80;99.90;;;;;;4976343;28;20046;-93
2021/06/06 12:52:58;;;;;;;63.28;38.25;;;16.90;99.90;;;;;;4977509;28;20050;-91
2021/06/06 12:55:30;;;;;;;66.55;39.13;;;16.90;99.90;;;;;;4999268;28;20043;-92
2021/06/06 12:57:57;;;;;;;61.03;37.42;;;16.70;99.90;;;;;;4975966;28;20050;-93
2021/06/06 13:00:37;;;;;;;65.18;39.22;;;16.60;99.90;;;;;;4999077;28;20068;-91
2021/06/06 13:03:15;;;;;;;63.15;37.63;;;16.50;99.90;;;;;;4984615;28;20174;-91
2021/06/06 13:06:04;;;;;;;;;;;;;;;;;;;;;
2021/06/06 13:08:35;;;;;;;57.80;36.47;;;16.50;99.90;;;;;;5013693;28;20435;-90
2021/06/06 13:11:14;;;;;;;59.95;35.35;;;16.40;99.90;;;;;;5003112;28;20042;-91
2021/06/06 13:13:47;;;;;;;58.42;34.72;;;16.40;99.90;;;;;;4987305;28;20064;-92
2021/06/06 13:16:36;;;;;;;57.53;34.25;;;16.50;99.90;;;;;;4993074;28;20043;-91
2021/06/06 13:19:15;;;;;;;52.95;34.55;;;16.50;99.90;;;;;;4993297;28;20050;-91
2021/06/06 13:21:58;;;;;;;55.20;35.25;;;16.40;99.90;;;;;;4991840;28;20124;-93
2021/06/06 13:24:31;;;;;;;58.72;35.22;;;16.40;99.90;;;;;;4968011;28;20050;-89
2021/06/06 13:27:31;;;;;;;64.80;38.10;;;16.30;99.90;;;;;;5004514;28;20034;-93